createdAt,value
2022-07-28T00:03:33.734Z,33.40
2022-07-28T00:08:35.473Z,33.70
2022-07-28T00:13:37.231Z,33.60
2022-07-28T00:18:38.954Z,34.00
2022-07-28T00:23:40.685Z,34.40
2022-07-28T00:28:42.409Z,35.00
2022-07-28T00:33:44.097Z,34.70
2022-07-28T00:38:45.862Z,34.80
2022-07-28T00:43:51.237Z,34.80
2022-07-28T00:48:54.287Z,35.50
2022-07-28T00:53:56.256Z,35.50
2022-07-28T00:58:57.942Z,35.70
2022-07-28T01:04:00.820Z,35.90
2022-07-28T01:09:05.558Z,36.10
2022-07-28T01:14:08.925Z,36.60
2022-07-28T01:19:34.041Z,36.60
2022-07-28T01:24:51.048Z,36.90
2022-07-28T01:30:19.063Z,37.30
2022-07-28T01:35:24.913Z,37.60
2022-07-28T01:40:29.536Z,37.90
2022-07-28T01:45:32.454Z,37.80
2022-07-28T01:50:34.558Z,38.20
2022-07-28T01:55:36.749Z,38.40
2022-07-28T02:00:38.761Z,38.70
2022-07-28T02:05:41.437Z,39.10
2022-07-28T02:10:44.073Z,39.20
2022-07-28T02:15:46.703Z,39.50
2022-07-28T02:20:49.539Z,39.50
2022-07-28T02:25:51.416Z,39.50
2022-07-28T02:31:00.205Z,39.60
2022-07-28T02:36:01.932Z,39.20
2022-07-28T02:41:08.702Z,39.30
2022-07-28T02:46:14.561Z,39.70
2022-07-28T02:51:17.500Z,39.80
2022-07-28T02:56:19.283Z,39.70
2022-07-28T03:01:21.589Z,39.70
2022-07-28T03:06:28.528Z,39.50
2022-07-28T03:11:30.657Z,39.30
2022-07-28T03:16:32.380Z,39.60
2022-07-28T03:21:34.117Z,39.70
2022-07-28T03:26:37.489Z,39.70
2022-07-28T03:31:40.599Z,40.00
2022-07-28T03:36:44.620Z,40.00
2022-07-28T03:41:46.725Z,40.40
2022-07-28T03:46:48.416Z,39.10
2022-07-28T03:51:50.100Z,40.00
2022-07-28T03:56:51.803Z,42.50
2022-07-28T04:01:54.598Z,42.50
2022-07-28T04:06:56.287Z,43.20
2022-07-28T04:11:58.000Z,42.90
2022-07-28T04:17:00.303Z,42.90
2022-07-28T04:22:02.134Z,43.00
2022-07-28T04:27:03.954Z,42.70
2022-07-28T04:32:05.759Z,44.00
2022-07-28T04:38:32.053Z,43.60
2022-07-28T04:43:33.771Z,43.80
2022-07-28T04:48:35.490Z,43.60
2022-07-28T04:53:37.189Z,40.90
2022-07-28T04:58:38.869Z,39.90
2022-07-28T05:03:40.601Z,39.50
2022-07-28T05:08:42.277Z,39.50
2022-07-28T05:13:43.957Z,38.80
2022-07-28T05:18:45.967Z,39.10
2022-07-28T05:23:47.862Z,39.10
2022-07-28T05:28:49.861Z,38.20
2022-07-28T05:33:52.290Z,38.00
2022-07-28T05:38:54.041Z,38.00
2022-07-28T05:43:55.737Z,36.80
2022-07-28T05:48:57.415Z,36.40
2022-07-28T05:53:59.120Z,36.30
2022-07-28T05:59:00.882Z,36.10
2022-07-28T06:04:25.885Z,36.00
2022-07-28T06:09:24.271Z,35.90
2022-07-28T06:14:25.990Z,35.90
2022-07-28T06:19:27.678Z,35.90
2022-07-28T06:24:29.600Z,35.90
2022-07-28T06:29:31.316Z,35.80
2022-07-28T06:34:33.019Z,35.80
2022-07-28T06:39:34.737Z,35.80
2022-07-28T06:44:57.311Z,35.70
2022-07-28T06:49:58.401Z,35.80
2022-07-28T06:55:00.677Z,35.80
2022-07-28T07:00:05.205Z,36.00
2022-07-28T07:05:07.209Z,35.90
2022-07-28T07:10:08.973Z,35.80
2022-07-28T07:15:10.964Z,36.00
2022-07-28T07:20:14.287Z,36.10
2022-07-28T07:25:18.800Z,36.00
2022-07-28T07:30:20.467Z,36.00
2022-07-28T07:35:22.232Z,36.00
2022-07-28T07:40:24.043Z,36.00
2022-07-28T07:45:26.132Z,36.00
2022-07-28T07:50:27.869Z,36.00
2022-07-28T07:55:34.340Z,36.10
2022-07-28T08:00:39.295Z,36.10
2022-07-28T08:05:41.044Z,36.00
2022-07-28T08:10:43.045Z,36.00
2022-07-28T08:15:44.962Z,36.00
2022-07-28T08:20:46.673Z,36.00
2022-07-28T08:25:48.397Z,36.00
2022-07-28T08:30:50.211Z,35.90
2022-07-28T08:35:51.947Z,35.90
2022-07-28T08:40:56.718Z,35.90
2022-07-28T08:45:59.693Z,35.90
2022-07-28T08:51:03.006Z,35.90
2022-07-28T08:56:06.357Z,35.90
2022-07-28T09:01:08.948Z,35.90
2022-07-28T09:06:10.687Z,35.90
2022-07-28T09:11:12.358Z,35.80
2022-07-28T09:16:14.440Z,35.90
2022-07-28T09:21:16.249Z,35.90
2022-07-28T09:26:18.005Z,35.80
2022-07-28T09:31:20.958Z,35.80
2022-07-28T09:36:22.878Z,35.80
2022-07-28T09:41:24.828Z,35.80
2022-07-28T09:46:29.835Z,35.80
2022-07-28T09:51:33.552Z,35.80
2022-07-28T09:56:35.697Z,35.70
2022-07-28T10:01:50.523Z,35.80
2022-07-28T10:07:00.338Z,35.70
2022-07-28T10:12:21.605Z,35.80
2022-07-28T10:17:30.226Z,35.70
2022-07-28T10:22:42.901Z,35.70
2022-07-28T10:27:47.021Z,35.60
2022-07-28T10:32:48.716Z,35.60
2022-07-28T10:37:50.380Z,36.10
2022-07-28T10:42:52.139Z,35.50
2022-07-28T10:47:54.252Z,35.50
2022-07-28T10:52:59.356Z,35.50
2022-07-28T10:58:25.034Z,35.50
2022-07-28T11:03:47.152Z,35.40
2022-07-28T11:08:49.073Z,35.40
2022-07-28T11:13:50.744Z,35.30
2022-07-28T11:19:08.074Z,35.40
2022-07-28T11:24:26.475Z,35.30
2022-07-28T11:29:28.654Z,35.20
2022-07-28T11:34:50.316Z,35.10
2022-07-28T11:39:52.007Z,35.10
2022-07-28T11:44:54.806Z,35.10
2022-07-28T11:50:13.119Z,35.10
2022-07-28T11:55:17.621Z,35.10
2022-07-28T12:00:20.116Z,35.00
2022-07-28T12:05:23.552Z,34.90
2022-07-28T12:10:53.213Z,34.90
2022-07-28T12:15:52.350Z,34.90
2022-07-28T12:20:54.930Z,34.80
2022-07-28T12:25:57.520Z,34.70
2022-07-28T12:31:15.697Z,34.70
2022-07-28T12:36:19.467Z,34.50
2022-07-28T12:41:21.557Z,34.50
2022-07-28T12:46:25.190Z,34.50
2022-07-28T12:51:37.765Z,34.40
2022-07-28T12:56:50.475Z,34.40
2022-07-28T13:01:53.358Z,34.30
2022-07-28T13:06:56.476Z,34.30
2022-07-28T13:11:58.320Z,34.30
2022-07-28T13:17:00.117Z,34.20
2022-07-28T13:22:06.858Z,34.20
2022-07-28T13:27:11.097Z,34.10
2022-07-28T13:32:12.869Z,34.10
2022-07-28T13:37:14.773Z,34.00
2022-07-28T13:42:16.445Z,33.90
2022-07-28T13:47:18.177Z,34.00
2022-07-28T13:52:32.460Z,33.90
2022-07-28T13:57:37.027Z,33.80
2022-07-28T14:02:38.728Z,33.70
2022-07-28T14:07:48.575Z,33.70
2022-07-28T14:12:50.891Z,33.60
2022-07-28T14:17:53.082Z,33.60
2022-07-28T14:22:54.942Z,33.60
2022-07-28T14:27:56.625Z,33.50
2022-07-28T14:32:58.329Z,33.40
2022-07-28T14:43:21.747Z,33.10
2022-07-28T14:48:23.413Z,33.00
2022-07-28T14:53:28.012Z,33.00
2022-07-28T14:58:30.062Z,32.80
2022-07-28T15:03:36.385Z,32.70
2022-07-28T15:08:38.427Z,32.70
2022-07-28T15:13:40.106Z,32.60
2022-07-28T15:18:41.787Z,32.50
2022-07-28T15:23:43.985Z,32.40
2022-07-28T15:28:48.410Z,32.20
2022-07-28T15:33:57.490Z,32.20
2022-07-28T15:38:59.594Z,32.10
2022-07-28T15:44:01.273Z,32.00
2022-07-28T15:49:07.485Z,31.90
2022-07-28T15:54:09.213Z,31.90
2022-07-28T15:59:11.031Z,31.70
2022-07-28T16:04:13.252Z,31.50
2022-07-28T16:09:15.286Z,31.10
2022-07-28T16:14:18.099Z,30.90
2022-07-28T16:19:38.645Z,30.70
2022-07-28T16:24:41.787Z,30.90
2022-07-28T16:29:43.644Z,30.80
2022-07-28T16:34:45.814Z,30.90
2022-07-28T16:39:47.768Z,30.90
2022-07-28T16:44:49.464Z,30.60
2022-07-28T16:49:51.124Z,30.30
2022-07-28T16:54:52.900Z,29.90
2022-07-28T16:59:54.585Z,30.00
2022-07-28T17:04:56.369Z,29.80
2022-07-28T17:09:58.087Z,29.90
2022-07-28T17:14:59.763Z,30.00
2022-07-28T17:20:01.765Z,30.00
2022-07-28T17:25:06.961Z,30.00
2022-07-28T17:30:18.848Z,30.00
2022-07-28T17:35:34.311Z,29.80
2022-07-28T17:40:38.102Z,29.80
2022-07-28T17:45:39.801Z,29.90
2022-07-28T17:50:41.960Z,29.90
2022-07-28T17:55:59.979Z,29.80
2022-07-28T18:01:09.559Z,29.90
2022-07-28T18:06:13.047Z,29.80
2022-07-28T18:11:14.793Z,29.90
2022-07-28T18:16:16.530Z,30.00
2022-07-28T18:21:18.309Z,30.10
2022-07-28T18:26:20.015Z,30.20
2022-07-28T18:31:21.840Z,30.20
2022-07-28T18:36:23.617Z,30.30
2022-07-28T18:41:25.284Z,30.80
2022-07-28T18:46:27.468Z,30.10
2022-07-28T18:51:29.276Z,30.00
2022-07-28T18:56:31.021Z,30.10
2022-07-28T19:01:32.765Z,30.00
2022-07-28T19:06:35.545Z,30.00
2022-07-28T19:11:40.077Z,30.00
2022-07-28T19:16:44.456Z,30.00
2022-07-28T19:21:46.263Z,30.00
2022-07-28T19:26:50.099Z,30.00
2022-07-28T19:31:51.811Z,30.00
2022-07-28T19:36:54.759Z,29.90
2022-07-28T19:41:56.465Z,29.80
2022-07-28T19:46:58.801Z,29.80
2022-07-28T19:52:01.309Z,29.80
2022-07-28T19:57:03.210Z,29.80
2022-07-28T20:02:14.389Z,29.70
2022-07-28T20:07:16.168Z,29.60
2022-07-28T20:12:18.223Z,29.60
2022-07-28T20:17:37.439Z,29.60
2022-07-28T20:22:41.180Z,29.60
2022-07-28T20:27:43.360Z,29.50
2022-07-28T20:32:45.129Z,29.60
2022-07-28T20:37:46.821Z,29.60
2022-07-28T20:42:52.863Z,29.70
2022-07-28T20:47:54.872Z,29.60
2022-07-28T20:52:56.622Z,29.50
2022-07-28T20:57:58.324Z,29.50
2022-07-28T21:03:00.191Z,29.70
2022-07-28T21:08:04.762Z,29.60
2022-07-28T21:13:08.400Z,29.60
2022-07-28T21:18:10.783Z,29.50
2022-07-28T21:23:12.539Z,29.60
2022-07-28T21:28:32.971Z,29.50
2022-07-28T21:33:34.888Z,29.50
2022-07-28T21:38:36.739Z,29.60
2022-07-28T21:43:38.603Z,29.60
2022-07-28T21:48:40.489Z,29.60
2022-07-28T21:53:44.888Z,29.70
2022-07-28T21:58:47.448Z,29.70
2022-07-28T22:03:49.833Z,29.70
2022-07-28T22:08:54.041Z,29.70
2022-07-28T22:13:55.874Z,29.60
2022-07-28T22:18:57.603Z,29.50
2022-07-28T22:23:59.332Z,29.70
2022-07-28T22:29:01.011Z,29.60
2022-07-28T22:34:02.931Z,29.70
2022-07-28T22:39:04.781Z,29.60
2022-07-28T22:44:07.545Z,29.60
2022-07-28T22:49:10.121Z,29.50
2022-07-28T22:54:11.963Z,29.60
2022-07-28T22:59:14.491Z,29.50
2022-07-28T23:04:19.711Z,29.60
2022-07-28T23:09:24.206Z,29.60
2022-07-28T23:14:25.979Z,29.50
2022-07-28T23:19:27.718Z,29.50
2022-07-28T23:24:29.494Z,29.50
2022-07-28T23:29:31.239Z,29.60
2022-07-28T23:34:33.002Z,29.40
2022-07-28T23:39:34.769Z,29.50
2022-07-28T23:44:36.523Z,29.50
2022-07-28T23:49:38.264Z,29.40
2022-07-28T23:54:40.088Z,29.40
2022-07-28T23:59:41.833Z,29.50
